メインページ
METAR-TAF:

METAR-TAF

空港 :

ブルネイ, ブルネイ

ブルネイ国際空港

緯度: 04-56N, 経度: 114-56E, 海抜: 22m

現時点の気象観測

当レポートは33分前の20:30(UTC)に作成
東/南東の風 2kt
気温 26°C
湿度 94%
気圧 1012 hPa
視程10km以上
高度500ftの雲はほとんどない
高度14000ftの千切れ雲あり

METAR: WBSB 292030Z 12002KT 9999 FEW005 BKN140 26/25 Q1012 NOSIG

時間: 05:03 (21:03 UTC)

予報

当レポートは4時間12分前の16:51(UTC)に作成
予報は29日の 18時(UTC)から 31日の 00時(UTC)まで有効
の風 3kt
視程10km以上
高度1400ftの雲は散在している
高度1500ftの雲はほとんどない, 積乱雲.
29日の 18時(UTC)から 29日の 20時(UTC)まで一時的に
視程: 8000m
弱いにわか雨
30日の 03時(UTC)から 30日の 05時(UTC)まで徐々に
北/北西の風 8kt
高度1600ftの雲はほとんどない
高度1700ftの雲はほとんどない, 積乱雲.

TAF: WBSB 291651Z 2918/3100 10003KT 9999 SCT014 FEW015CB TEMPO 2918/2920 8000 -SHRA BECMG 3003/3005 33008KT FEW016 FEW017CB

4,000以上の空港の気象観測と天気予報(METAR報とTAF報)

利用可能な観測所は地図上に黄色い丸と赤い丸で示す。

丸の上にカーソルを重ねると観測所名を参照できる。

次にクリックすると気象観測と天気予報を参照できる。

マップの切り替え:黒色「×」印の緑ボタンをクリックして拡大、「-」印の緑ボタンをクリックして縮小、緑色の三角印をクリックして隣りの地図に切り替え


METAR-TAF: